createdAt,value
2017-08-15T00:01:58.163Z,70.90
2017-08-15T00:04:25.874Z,70.70
2017-08-15T00:06:54.105Z,70.80
2017-08-15T00:09:22.379Z,70.70
2017-08-15T00:11:50.549Z,71.00
2017-08-15T00:14:18.205Z,70.90
2017-08-15T00:16:46.128Z,71.10
2017-08-15T00:19:14.448Z,71.00
2017-08-15T00:21:42.010Z,71.00
2017-08-15T00:24:10.596Z,71.00
2017-08-15T00:26:38.091Z,70.90
2017-08-15T00:29:06.350Z,71.00
2017-08-15T00:31:33.917Z,71.00
2017-08-15T00:34:02.088Z,71.00
2017-08-15T00:36:31.324Z,70.80
2017-08-15T00:39:01.006Z,71.00
2017-08-15T00:41:29.258Z,71.10
2017-08-15T00:43:57.141Z,71.00
2017-08-15T00:46:25.892Z,72.00
2017-08-15T00:48:53.364Z,71.30
2017-08-15T00:51:21.884Z,71.00
2017-08-15T00:53:49.372Z,70.90
2017-08-15T00:56:16.861Z,70.90
2017-08-15T00:58:44.476Z,70.70
2017-08-15T01:01:11.981Z,70.80
2017-08-15T01:03:39.480Z,71.30
2017-08-15T01:06:07.855Z,70.90
2017-08-15T01:08:35.336Z,70.80
2017-08-15T01:11:02.993Z,70.90
2017-08-15T01:13:31.425Z,70.90
2017-08-15T01:15:59.230Z,70.60
2017-08-15T01:18:27.060Z,70.60
2017-08-15T01:20:55.785Z,70.50
2017-08-15T01:23:23.248Z,70.50
2017-08-15T01:25:50.709Z,70.80
2017-08-15T01:28:19.685Z,70.70
2017-08-15T01:30:47.404Z,70.50
2017-08-15T01:33:15.374Z,70.70
2017-08-15T01:35:42.816Z,70.50
2017-08-15T01:38:11.800Z,70.80
2017-08-15T01:40:40.363Z,70.70
2017-08-15T01:43:08.689Z,70.40
2017-08-15T01:45:36.672Z,70.30
2017-08-15T01:48:04.113Z,70.30
2017-08-15T01:50:32.716Z,70.40
2017-08-15T01:53:00.254Z,70.40
2017-08-15T01:55:29.886Z,70.20
2017-08-15T01:57:58.342Z,70.20
2017-08-15T02:00:25.865Z,70.20
2017-08-15T02:02:53.323Z,70.10
2017-08-15T02:05:22.129Z,70.30
2017-08-15T02:07:51.874Z,70.30
2017-08-15T02:10:20.132Z,70.30
2017-08-15T02:12:47.908Z,70.50
2017-08-15T02:15:16.468Z,70.40
2017-08-15T02:17:44.350Z,70.50
2017-08-15T02:20:12.027Z,70.60
2017-08-15T02:22:39.775Z,70.40
2017-08-15T02:25:07.961Z,70.30
2017-08-15T02:27:35.743Z,70.50
2017-08-15T02:30:03.207Z,70.50
2017-08-15T02:32:32.081Z,70.30
2017-08-15T02:35:00.537Z,70.10
2017-08-15T02:37:28.070Z,70.20
2017-08-15T02:39:56.365Z,70.30
2017-08-15T02:42:25.547Z,70.20
2017-08-15T02:44:53.311Z,70.00
2017-08-15T02:47:22.986Z,70.30
2017-08-15T02:49:50.668Z,70.30
2017-08-15T02:52:18.330Z,70.20
2017-08-15T02:54:46.929Z,69.90
2017-08-15T02:57:14.652Z,69.80
2017-08-15T02:59:43.722Z,69.60
2017-08-15T03:02:11.371Z,69.60
2017-08-15T03:04:38.894Z,69.40
2017-08-15T03:07:07.147Z,69.30
2017-08-15T03:09:35.349Z,69.30
2017-08-15T03:12:03.642Z,69.20
2017-08-15T03:14:31.128Z,69.30
2017-08-15T03:16:59.139Z,69.20
2017-08-15T03:19:28.245Z,69.20
2017-08-15T03:21:58.432Z,69.10
2017-08-15T03:24:26.289Z,69.00
2017-08-15T03:26:54.700Z,69.10
2017-08-15T03:29:24.360Z,69.70
2017-08-15T03:31:52.121Z,69.00
2017-08-15T03:34:19.994Z,69.00
2017-08-15T03:36:49.564Z,68.90
2017-08-15T03:39:17.080Z,68.80
2017-08-15T03:41:44.561Z,68.80
2017-08-15T03:44:12.312Z,68.70
2017-08-15T03:46:39.781Z,68.70
2017-08-15T03:49:07.236Z,68.60
2017-08-15T03:51:34.719Z,68.40
2017-08-15T03:54:02.965Z,68.30
2017-08-15T03:56:30.401Z,68.10
2017-08-15T03:58:58.852Z,68.10
2017-08-15T04:01:26.322Z,68.00
2017-08-15T04:03:53.776Z,67.90
2017-08-15T04:06:21.235Z,68.00
2017-08-15T04:08:48.705Z,67.90
2017-08-15T04:11:16.161Z,68.00
2017-08-15T04:13:43.660Z,68.00
2017-08-15T04:16:11.878Z,67.90
2017-08-15T04:18:39.328Z,67.80
2017-08-15T04:21:06.788Z,67.70
2017-08-15T04:23:34.244Z,67.70
2017-08-15T04:26:01.700Z,67.60
2017-08-15T04:28:29.156Z,67.60
2017-08-15T04:30:57.481Z,67.70
2017-08-15T04:33:25.705Z,67.90
2017-08-15T04:35:53.159Z,67.50
2017-08-15T04:38:20.624Z,67.30
2017-08-15T04:40:48.120Z,67.30
2017-08-15T04:43:16.344Z,68.00
2017-08-15T04:45:43.804Z,67.00
2017-08-15T04:48:11.721Z,67.10
2017-08-15T04:50:39.157Z,67.30
2017-08-15T04:53:06.597Z,67.20
2017-08-15T04:55:34.072Z,67.30
2017-08-15T04:58:01.528Z,67.10
2017-08-15T05:00:28.973Z,67.00
2017-08-15T05:02:56.447Z,67.10
2017-08-15T05:05:24.118Z,67.10
2017-08-15T05:07:52.337Z,67.90
2017-08-15T05:10:19.792Z,67.10
2017-08-15T05:12:47.253Z,67.10
2017-08-15T05:15:14.703Z,67.20
2017-08-15T05:17:42.170Z,67.30
2017-08-15T05:20:09.628Z,67.20
2017-08-15T05:22:37.124Z,67.00
2017-08-15T05:25:05.347Z,68.10
2017-08-15T05:27:32.807Z,68.10
2017-08-15T05:30:00.253Z,67.40
2017-08-15T05:32:27.733Z,67.50
2017-08-15T05:34:55.200Z,67.50
2017-08-15T05:37:22.670Z,67.50
2017-08-15T05:39:50.629Z,67.50
2017-08-15T05:42:18.131Z,67.40
2017-08-15T05:44:46.325Z,67.40
2017-08-15T05:47:13.792Z,67.30
2017-08-15T05:49:41.544Z,67.20
2017-08-15T05:52:09.073Z,67.20
2017-08-15T05:54:36.529Z,67.20
2017-08-15T05:57:04.263Z,67.30
2017-08-15T05:59:31.704Z,67.30
2017-08-15T06:01:59.169Z,67.30
2017-08-15T06:04:26.620Z,67.40
2017-08-15T06:06:54.115Z,67.50
2017-08-15T06:09:22.328Z,67.40
2017-08-15T06:11:49.785Z,67.40
2017-08-15T06:14:17.274Z,67.40
2017-08-15T06:16:44.741Z,67.50
2017-08-15T06:19:13.856Z,67.70
2017-08-15T06:21:41.301Z,67.60
2017-08-15T06:24:09.521Z,67.60
2017-08-15T06:26:36.968Z,67.60
2017-08-15T06:29:04.436Z,67.60
2017-08-15T06:31:31.925Z,67.50
2017-08-15T06:33:59.371Z,67.60
2017-08-15T06:36:26.824Z,67.50
2017-08-15T06:38:54.288Z,67.60
2017-08-15T06:41:21.736Z,67.60
2017-08-15T06:43:49.222Z,67.60
2017-08-15T06:46:17.425Z,67.50
2017-08-15T06:48:44.907Z,67.50
2017-08-15T06:51:12.356Z,67.50
2017-08-15T06:53:39.820Z,67.60
2017-08-15T06:56:07.272Z,67.60
2017-08-15T06:58:34.739Z,67.60
2017-08-15T07:01:02.181Z,67.60
2017-08-15T07:03:29.634Z,67.60
2017-08-15T07:05:57.320Z,67.70
2017-08-15T07:08:24.759Z,67.60
2017-08-15T07:10:52.209Z,67.40
2017-08-15T07:13:19.665Z,67.60
2017-08-15T07:15:47.104Z,67.60
2017-08-15T07:18:14.571Z,67.40
2017-08-15T07:20:42.033Z,67.60
2017-08-15T07:23:09.711Z,67.60
2017-08-15T07:25:37.151Z,67.40
2017-08-15T07:28:04.628Z,67.50
2017-08-15T07:30:32.099Z,67.50
2017-08-15T07:32:59.565Z,67.40
2017-08-15T07:35:27.779Z,67.30
2017-08-15T07:37:55.231Z,67.20
2017-08-15T07:40:22.741Z,67.20
2017-08-15T07:42:50.965Z,67.20
2017-08-15T07:45:18.420Z,67.20
2017-08-15T07:47:45.891Z,67.50
2017-08-15T07:50:13.342Z,67.40
2017-08-15T07:52:40.793Z,67.30
2017-08-15T07:55:08.261Z,67.30
2017-08-15T07:57:36.878Z,67.30
2017-08-15T08:00:04.330Z,67.50
2017-08-15T08:02:31.883Z,67.70
2017-08-15T08:04:59.318Z,67.60
2017-08-15T08:07:26.786Z,67.60
2017-08-15T08:09:54.240Z,67.60
2017-08-15T08:12:21.700Z,67.60
2017-08-15T08:14:49.578Z,67.40
2017-08-15T08:17:17.015Z,67.50
2017-08-15T08:19:44.496Z,67.50
2017-08-15T08:22:12.852Z,67.40
2017-08-15T08:24:40.312Z,67.70
2017-08-15T08:27:07.780Z,67.70
2017-08-15T08:29:36.007Z,68.00
2017-08-15T08:32:03.909Z,68.00
2017-08-15T08:34:31.390Z,68.10
2017-08-15T08:36:59.599Z,68.10
2017-08-15T08:39:27.058Z,68.00
2017-08-15T08:41:54.519Z,68.00
2017-08-15T08:44:21.978Z,68.20
2017-08-15T08:46:49.421Z,68.00
2017-08-15T08:49:17.142Z,68.00
2017-08-15T08:51:44.582Z,68.00
2017-08-15T08:54:12.052Z,68.00
2017-08-15T08:56:40.283Z,68.10
2017-08-15T08:59:07.780Z,68.10
2017-08-15T09:01:35.236Z,68.30
2017-08-15T09:04:03.484Z,68.30
2017-08-15T09:06:31.068Z,68.10
2017-08-15T09:08:58.520Z,68.20
2017-08-15T09:11:26.757Z,68.80
2017-08-15T09:13:54.219Z,68.50
2017-08-15T09:16:21.874Z,68.70
2017-08-15T09:18:49.391Z,69.10
2017-08-15T09:21:17.616Z,69.40
2017-08-15T09:23:45.523Z,69.30
2017-08-15T09:26:13.733Z,70.70
2017-08-15T09:28:56.113Z,70.60
2017-08-15T09:31:23.573Z,70.70
2017-08-15T09:33:51.493Z,70.80
2017-08-15T09:36:18.974Z,71.30
2017-08-15T09:38:47.214Z,71.80
2017-08-15T09:41:14.682Z,71.80
2017-08-15T09:43:42.165Z,72.20
2017-08-15T09:46:09.688Z,72.00
2017-08-15T09:48:37.134Z,72.30
2017-08-15T09:51:05.180Z,72.50
2017-08-15T09:53:32.629Z,73.00
2017-08-15T09:56:00.097Z,73.00
2017-08-15T09:58:33.243Z,72.90
2017-08-15T10:01:01.466Z,73.40
2017-08-15T10:03:29.200Z,73.30
2017-08-15T10:05:57.442Z,73.20
2017-08-15T10:08:24.892Z,73.20
2017-08-15T10:10:52.351Z,73.30
2017-08-15T10:13:19.821Z,73.30
2017-08-15T10:15:48.040Z,73.00
2017-08-15T10:18:15.661Z,73.70
2017-08-15T10:20:44.024Z,72.70
2017-08-15T10:23:11.482Z,72.70
2017-08-15T10:25:39.729Z,73.10
2017-08-15T10:28:07.175Z,72.50
2017-08-15T10:30:35.409Z,72.50
2017-08-15T10:33:02.862Z,72.10
2017-08-15T10:35:31.100Z,71.60
2017-08-15T10:37:58.830Z,71.50
2017-08-15T10:40:26.285Z,71.90
2017-08-15T10:42:53.745Z,72.30
2017-08-15T10:45:21.201Z,72.50
2017-08-15T10:47:48.672Z,72.50
2017-08-15T10:50:16.124Z,72.70
2017-08-15T10:52:43.599Z,72.90
2017-08-15T10:55:11.085Z,72.80
2017-08-15T10:57:39.349Z,72.90
2017-08-15T11:00:06.802Z,72.90
2017-08-15T11:02:35.036Z,74.20
2017-08-15T11:05:02.496Z,73.50
2017-08-15T11:07:30.029Z,73.60
2017-08-15T11:09:58.353Z,73.50
2017-08-15T11:12:26.018Z,73.10
2017-08-15T11:14:53.796Z,72.70
2017-08-15T11:17:22.030Z,72.00
2017-08-15T11:19:49.536Z,72.00
2017-08-15T11:22:17.761Z,72.20
2017-08-15T11:24:45.973Z,72.20
2017-08-15T11:27:14.213Z,71.60
2017-08-15T11:29:41.872Z,71.50
2017-08-15T11:32:09.344Z,71.50
2017-08-15T11:34:36.802Z,72.00
2017-08-15T11:37:04.309Z,71.90
2017-08-15T11:39:32.397Z,71.80
2017-08-15T11:41:59.849Z,71.50
2017-08-15T11:44:27.535Z,71.40
2017-08-15T11:46:55.041Z,71.10
2017-08-15T11:49:23.245Z,70.50
2017-08-15T11:51:50.698Z,70.50
2017-08-15T11:54:18.871Z,70.50
2017-08-15T11:56:46.353Z,70.60
2017-08-15T11:59:14.607Z,70.60
2017-08-15T12:01:42.119Z,70.30
2017-08-15T12:04:10.514Z,69.90
2017-08-15T12:06:38.154Z,70.50
2017-08-15T12:09:05.683Z,69.80
2017-08-15T12:11:33.132Z,69.60
2017-08-15T12:14:00.608Z,69.60
2017-08-15T12:16:28.181Z,69.50
2017-08-15T12:18:56.465Z,69.50
2017-08-15T12:21:25.302Z,69.50
2017-08-15T12:23:52.761Z,69.40
2017-08-15T12:26:20.232Z,69.40
2017-08-15T12:28:47.730Z,69.50
2017-08-15T12:31:15.438Z,69.30
2017-08-15T12:33:42.901Z,69.20
2017-08-15T12:36:10.431Z,69.10
2017-08-15T12:38:38.240Z,69.00
2017-08-15T12:41:05.958Z,68.70
2017-08-15T12:43:33.633Z,68.50
2017-08-15T12:46:01.115Z,67.20
2017-08-15T12:48:28.637Z,67.20
2017-08-15T12:50:56.093Z,66.90
2017-08-15T12:53:23.564Z,66.90
2017-08-15T12:55:51.045Z,66.60
2017-08-15T12:58:18.502Z,66.80
2017-08-15T13:00:45.969Z,66.20
2017-08-15T13:03:13.424Z,66.80
2017-08-15T13:05:41.648Z,66.30
2017-08-15T13:08:09.105Z,66.30
2017-08-15T13:10:36.570Z,66.30
2017-08-15T13:13:04.249Z,66.40
2017-08-15T13:15:31.732Z,66.20
2017-08-15T13:17:59.964Z,66.50
2017-08-15T13:20:27.450Z,66.30
2017-08-15T13:22:55.726Z,66.20
2017-08-15T13:25:23.183Z,66.10
2017-08-15T13:27:51.407Z,66.30
2017-08-15T13:30:19.123Z,66.20
2017-08-15T13:32:46.566Z,66.30
2017-08-15T13:35:14.016Z,66.10
2017-08-15T13:37:41.481Z,66.00
2017-08-15T13:40:26.845Z,66.00
2017-08-15T13:43:11.996Z,66.00
2017-08-15T13:45:39.486Z,65.90
2017-08-15T13:48:06.941Z,65.80
2017-08-15T13:50:34.413Z,66.10
2017-08-15T13:53:20.817Z,66.00
2017-08-15T13:58:15.631Z,65.40
2017-08-15T14:00:44.306Z,64.60
2017-08-15T14:03:13.176Z,64.40
2017-08-15T14:05:45.148Z,63.30
2017-08-15T14:08:15.006Z,62.70
2017-08-15T14:10:48.263Z,62.40
2017-08-15T14:13:19.709Z,62.30
2017-08-15T14:15:48.370Z,62.70
2017-08-15T14:18:18.108Z,62.30
2017-08-15T14:20:48.764Z,62.60
2017-08-15T14:23:16.836Z,62.70
2017-08-15T14:25:46.682Z,62.70
2017-08-15T14:28:15.548Z,62.80
2017-08-15T14:30:44.101Z,63.00
2017-08-15T14:33:13.817Z,62.90
2017-08-15T14:35:42.189Z,62.70
2017-08-15T14:38:11.901Z,62.60
2017-08-15T14:43:15.370Z,62.80
2017-08-15T14:45:45.901Z,62.90
2017-08-15T14:48:16.221Z,63.30
2017-08-15T14:50:45.109Z,63.50
2017-08-15T14:56:07.809Z,63.70
2017-08-15T14:58:35.362Z,63.70
2017-08-15T15:01:04.420Z,64.00
2017-08-15T15:03:32.674Z,64.00
2017-08-15T15:06:00.882Z,64.00
2017-08-15T15:08:31.464Z,64.00
2017-08-15T15:11:01.990Z,63.90
2017-08-15T15:13:32.865Z,64.00
2017-08-15T15:16:03.008Z,64.10
2017-08-15T15:18:32.211Z,64.30
2017-08-15T15:21:02.939Z,65.10
2017-08-15T15:23:33.421Z,65.30
2017-08-15T15:26:04.746Z,65.90
2017-08-15T15:28:37.190Z,65.90
2017-08-15T15:31:07.294Z,65.80
2017-08-15T15:33:37.936Z,65.60
2017-08-15T15:36:08.270Z,66.40
2017-08-15T15:38:37.290Z,66.70
2017-08-15T15:41:06.863Z,66.70
2017-08-15T15:43:36.947Z,66.40
2017-08-15T15:46:06.983Z,66.70
2017-08-15T15:48:35.184Z,67.00
2017-08-15T15:51:02.686Z,66.20
2017-08-15T15:53:33.749Z,66.40
2017-08-15T15:56:03.076Z,66.80
2017-08-15T15:58:33.366Z,66.90
2017-08-15T16:01:01.653Z,67.10
2017-08-15T16:03:31.573Z,67.10
2017-08-15T16:06:00.801Z,69.00
2017-08-15T16:08:34.581Z,70.60
2017-08-15T16:11:06.801Z,72.10
2017-08-15T16:13:35.423Z,71.50
2017-08-15T16:16:05.433Z,71.50
2017-08-15T16:18:33.925Z,71.00
2017-08-15T16:21:03.865Z,70.20
2017-08-15T16:23:34.229Z,70.20
2017-08-15T16:26:03.038Z,69.60
2017-08-15T16:28:31.324Z,69.80
2017-08-15T16:31:00.112Z,69.50
2017-08-15T16:33:31.576Z,69.80
2017-08-15T16:36:00.156Z,69.50
2017-08-15T16:38:30.456Z,69.30
2017-08-15T16:40:59.187Z,70.00
2017-08-15T16:43:29.838Z,69.70
2017-08-15T16:46:01.427Z,69.70
2017-08-15T16:48:32.037Z,70.40
2017-08-15T16:51:04.007Z,70.50
2017-08-15T16:53:32.191Z,70.50
2017-08-15T16:56:01.695Z,69.70
2017-08-15T16:58:31.396Z,70.00
2017-08-15T17:01:01.126Z,69.60
2017-08-15T17:03:28.698Z,70.50
2017-08-15T17:05:59.106Z,70.60
2017-08-15T17:08:28.741Z,70.50
2017-08-15T17:10:58.037Z,70.20
2017-08-15T17:13:28.965Z,69.80
2017-08-15T17:15:59.290Z,70.00
2017-08-15T17:18:27.724Z,67.80
2017-08-15T17:20:57.661Z,67.80
2017-08-15T17:23:26.093Z,69.20
2017-08-15T17:25:56.197Z,68.30
2017-08-15T17:28:24.733Z,68.30
2017-08-15T17:30:54.975Z,68.60
2017-08-15T17:33:23.822Z,68.70
2017-08-15T17:35:54.795Z,66.10
2017-08-15T17:38:24.536Z,68.50
2017-08-15T17:40:52.846Z,68.50
2017-08-15T17:43:23.228Z,68.30
2017-08-15T17:45:52.647Z,68.30
2017-08-15T17:48:22.112Z,68.70
2017-08-15T17:50:52.417Z,68.60
2017-08-15T17:53:23.273Z,68.60
2017-08-15T17:55:53.492Z,68.60
2017-08-15T17:58:22.156Z,68.70
2017-08-15T18:00:51.908Z,68.30
2017-08-15T18:03:19.478Z,68.30
2017-08-15T18:05:49.340Z,69.10
2017-08-15T18:08:21.596Z,69.60
2017-08-15T18:10:49.221Z,68.60
2017-08-15T18:13:16.831Z,68.80
2017-08-15T18:15:47.062Z,69.10
2017-08-15T18:18:14.741Z,68.70
2017-08-15T18:20:44.237Z,69.20
2017-08-15T18:23:14.553Z,69.80
2017-08-15T18:25:43.470Z,70.00
2017-08-15T18:28:12.689Z,69.90
2017-08-15T18:30:40.765Z,70.50
2017-08-15T18:33:10.037Z,70.60
2017-08-15T18:35:37.966Z,71.20
2017-08-15T18:38:06.538Z,71.40
2017-08-15T18:40:36.760Z,70.90
2017-08-15T18:43:05.199Z,71.60
2017-08-15T18:45:34.257Z,72.10
2017-08-15T18:48:02.546Z,72.00
2017-08-15T18:50:35.169Z,71.90
2017-08-15T18:53:06.326Z,72.60
2017-08-15T18:55:34.106Z,72.70
2017-08-15T18:58:03.334Z,73.10
2017-08-15T19:00:32.841Z,73.00
2017-08-15T19:03:02.129Z,72.70
2017-08-15T19:05:30.375Z,72.90
2017-08-15T19:08:02.683Z,72.40
2017-08-15T19:10:32.355Z,72.90
2017-08-15T19:13:00.945Z,73.20
2017-08-15T19:15:29.403Z,73.20
2017-08-15T19:17:58.826Z,73.60
2017-08-15T19:20:28.199Z,73.50
2017-08-15T19:22:55.654Z,73.40
2017-08-15T19:25:25.752Z,72.30
2017-08-15T19:27:57.364Z,72.10
2017-08-15T19:30:25.834Z,72.10
2017-08-15T19:32:53.986Z,71.00
2017-08-15T19:35:26.647Z,71.10
2017-08-15T19:37:55.786Z,70.00
2017-08-15T19:40:23.299Z,69.90
2017-08-15T19:42:52.615Z,70.30
2017-08-15T19:45:23.273Z,69.50
2017-08-15T19:47:54.592Z,69.60
2017-08-15T19:50:24.009Z,69.60
2017-08-15T19:52:53.917Z,69.40
2017-08-15T19:55:21.937Z,69.40
2017-08-15T19:57:51.934Z,69.20
2017-08-15T20:00:20.000Z,69.10
2017-08-15T20:02:48.902Z,69.30
2017-08-15T20:05:20.811Z,70.50
2017-08-15T20:07:50.755Z,70.00
2017-08-15T20:12:53.725Z,70.40
2017-08-15T20:15:26.607Z,70.90
2017-08-15T20:17:57.323Z,71.40
2017-08-15T20:20:28.187Z,71.90
2017-08-15T20:22:56.864Z,72.40
2017-08-15T20:25:29.586Z,72.70
2017-08-15T20:27:59.944Z,73.50
2017-08-15T20:30:28.557Z,73.60
2017-08-15T20:32:57.856Z,74.10
2017-08-15T20:35:27.415Z,74.30
2017-08-15T20:37:55.718Z,74.50
2017-08-15T20:40:26.007Z,74.40
2017-08-15T20:42:54.263Z,76.40
2017-08-15T20:45:23.584Z,75.50
2017-08-15T20:47:52.533Z,76.00
2017-08-15T20:50:23.319Z,77.30
2017-08-15T20:52:52.666Z,77.80
2017-08-15T20:55:20.962Z,79.30
2017-08-15T20:57:52.165Z,78.50
2017-08-15T21:00:26.600Z,78.30
2017-08-15T21:02:56.707Z,78.90
2017-08-15T21:05:26.417Z,78.90
2017-08-15T21:07:55.870Z,78.80
2017-08-15T21:10:23.788Z,85.60
2017-08-15T21:12:53.718Z,77.70
2017-08-15T21:15:22.008Z,76.50
2017-08-15T21:17:50.460Z,77.80
2017-08-15T21:20:17.983Z,78.50
2017-08-15T21:22:46.298Z,79.10
2017-08-15T21:25:15.103Z,79.50
2017-08-15T21:27:43.140Z,79.40
2017-08-15T21:30:14.028Z,80.30
2017-08-15T21:32:43.674Z,82.10
2017-08-15T21:35:14.628Z,81.00
2017-08-15T21:37:44.550Z,78.90
2017-08-15T21:40:15.573Z,76.80
2017-08-15T21:42:45.819Z,75.50
2017-08-15T21:45:13.945Z,76.40
2017-08-15T21:47:43.506Z,74.60
2017-08-15T21:50:14.438Z,76.00
2017-08-15T21:52:43.612Z,74.10
2017-08-15T21:55:12.224Z,74.70
2017-08-15T21:57:42.236Z,74.10
2017-08-15T22:00:12.327Z,73.60
2017-08-15T22:02:41.107Z,74.10
2017-08-15T22:05:11.433Z,71.90
2017-08-15T22:07:40.017Z,73.60
2017-08-15T22:10:11.705Z,73.70
2017-08-15T22:12:42.831Z,74.30
2017-08-15T22:15:14.012Z,74.40
2017-08-15T22:17:44.938Z,73.40
2017-08-15T22:20:13.486Z,73.90
2017-08-15T22:22:43.187Z,73.10
2017-08-15T22:25:12.689Z,73.50
2017-08-15T22:27:41.165Z,73.80
2017-08-15T22:30:11.079Z,74.70
2017-08-15T22:32:40.793Z,75.40
2017-08-15T22:35:11.993Z,76.00
2017-08-15T22:37:43.073Z,76.80
2017-08-15T22:40:12.737Z,76.80
2017-08-15T22:42:41.975Z,77.50
2017-08-15T22:45:11.293Z,77.40
2017-08-15T22:47:39.824Z,77.20
2017-08-15T22:50:11.100Z,77.40
2017-08-15T22:52:39.745Z,78.00
2017-08-15T22:55:09.408Z,78.80
2017-08-15T22:57:40.454Z,78.60
2017-08-15T23:00:10.344Z,78.80
2017-08-15T23:02:39.568Z,78.20
2017-08-15T23:05:09.462Z,78.50
2017-08-15T23:07:39.726Z,79.20
2017-08-15T23:10:09.596Z,78.90
2017-08-15T23:12:38.992Z,78.90
2017-08-15T23:15:07.069Z,78.80
2017-08-15T23:17:37.378Z,78.50
2017-08-15T23:20:06.175Z,78.10
2017-08-15T23:22:35.473Z,78.00
2017-08-15T23:25:05.180Z,78.50
2017-08-15T23:27:35.810Z,78.70
2017-08-15T23:30:03.998Z,78.80
2017-08-15T23:32:33.885Z,78.80
2017-08-15T23:35:05.343Z,79.00
2017-08-15T23:37:35.365Z,79.00
2017-08-15T23:40:04.045Z,78.90
2017-08-15T23:42:33.680Z,79.00
2017-08-15T23:45:02.334Z,78.40
2017-08-15T23:47:32.448Z,78.10
2017-08-15T23:50:04.137Z,78.00
2017-08-15T23:52:32.094Z,78.10
2017-08-15T23:55:01.168Z,78.30
2017-08-15T23:57:28.740Z,78.10
2017-08-15T23:59:57.250Z,78.10
